createdAt,value
2023-01-01T00:02:58.227Z,10.99
2023-01-01T00:08:20.442Z,10.97
2023-01-01T00:13:42.676Z,10.95
2023-01-01T00:19:04.508Z,10.92
2023-01-01T00:24:26.483Z,10.89
2023-01-01T00:29:48.108Z,10.87
2023-01-01T00:35:10.279Z,10.84
2023-01-01T00:40:31.921Z,10.81
2023-01-01T00:45:53.961Z,10.81
2023-01-01T00:51:15.647Z,10.85
2023-01-01T00:56:37.540Z,10.91
2023-01-01T01:01:59.756Z,10.92
2023-01-01T01:07:21.648Z,10.93
2023-01-01T01:12:43.364Z,10.96
2023-01-01T01:18:05.235Z,10.99
2023-01-01T01:23:27.268Z,11.03
2023-01-01T01:28:50.347Z,11.03
2023-01-01T01:34:16.003Z,10.95
2023-01-01T01:39:40.793Z,11.00
2023-01-01T01:45:11.098Z,11.00
2023-01-01T01:50:34.778Z,11.02
2023-01-01T01:56:00.779Z,11.04
2023-01-01T02:01:22.198Z,11.04
2023-01-01T02:06:45.964Z,11.03
2023-01-01T02:12:07.635Z,11.03
2023-01-01T02:17:39.076Z,11.00
2023-01-01T02:23:26.148Z,10.90
2023-01-01T02:29:03.627Z,10.85
2023-01-01T02:34:30.347Z,10.83
2023-01-01T02:39:56.799Z,10.73
2023-01-01T02:45:18.736Z,10.67
2023-01-01T02:50:40.711Z,10.68
2023-01-01T02:56:13.473Z,10.60
2023-01-01T03:01:58.808Z,10.52
2023-01-01T03:07:32.738Z,10.46
2023-01-01T03:13:00.975Z,10.40
2023-01-01T03:18:27.443Z,10.33
2023-01-01T03:23:54.514Z,10.26
2023-01-01T03:29:16.314Z,10.23
2023-01-01T03:34:42.122Z,10.22
2023-01-01T03:40:05.960Z,10.26
2023-01-01T03:45:38.180Z,10.29
2023-01-01T03:51:09.173Z,10.28
2023-01-01T03:56:53.999Z,10.38
2023-01-01T04:02:19.190Z,10.50
2023-01-01T04:13:04.801Z,10.64
2023-01-01T04:18:26.243Z,10.72
2023-01-01T04:23:48.438Z,10.79
2023-01-01T04:29:10.040Z,10.84
2023-01-01T04:34:31.991Z,10.90
2023-01-01T04:39:53.650Z,10.99
2023-01-01T04:45:15.704Z,11.08
2023-01-01T04:50:37.655Z,11.13
2023-01-01T04:56:09.696Z,11.16
2023-01-01T05:01:34.965Z,11.14
2023-01-01T05:06:57.025Z,11.08
2023-01-01T05:12:18.971Z,11.07
2023-01-01T05:17:40.665Z,11.05
2023-01-01T05:23:02.654Z,11.03
2023-01-01T05:28:24.889Z,11.02
2023-01-01T05:33:47.180Z,11.02
2023-01-01T05:39:10.509Z,11.05
2023-01-01T05:44:32.344Z,11.12
2023-01-01T05:49:54.838Z,11.17
2023-01-01T05:55:16.631Z,11.23
2023-01-01T06:00:38.793Z,11.29
2023-01-01T06:06:08.473Z,11.34
2023-01-01T06:11:31.460Z,11.37
2023-01-01T06:16:53.140Z,11.40
2023-01-01T06:22:16.638Z,11.41
2023-01-01T06:27:38.770Z,11.43
2023-01-01T06:33:01.405Z,11.43
2023-01-01T06:38:23.642Z,11.41
2023-01-01T06:43:46.201Z,11.41
2023-01-01T06:49:11.085Z,11.41
2023-01-01T06:54:33.006Z,11.41
2023-01-01T06:59:54.670Z,11.41
2023-01-01T07:05:16.529Z,11.43
2023-01-01T07:10:38.293Z,11.45
2023-01-01T07:16:00.561Z,11.47
2023-01-01T07:21:31.259Z,11.47
2023-01-01T07:26:53.035Z,11.43
2023-01-01T07:32:14.972Z,11.38
2023-01-01T07:37:36.906Z,11.32
2023-01-01T07:42:58.871Z,11.27
2023-01-01T07:48:20.523Z,11.20
2023-01-01T07:53:42.236Z,11.17
2023-01-01T07:59:05.002Z,11.09
2023-01-01T08:04:29.820Z,11.04
2023-01-01T08:09:51.750Z,11.01
2023-01-01T08:15:14.929Z,10.97
2023-01-01T08:20:36.842Z,10.92
2023-01-01T08:26:00.387Z,10.89
2023-01-01T08:31:22.913Z,10.84
2023-01-01T08:36:44.736Z,10.82
2023-01-01T08:42:12.239Z,10.83
2023-01-01T08:47:34.763Z,10.87
2023-01-01T08:52:58.999Z,10.97
2023-01-01T08:58:20.676Z,11.07
2023-01-01T09:03:42.524Z,11.21
2023-01-01T09:09:04.187Z,11.35
2023-01-01T09:14:26.015Z,11.47
2023-01-01T09:19:50.060Z,11.57
2023-01-01T09:25:11.985Z,11.70
2023-01-01T09:30:34.905Z,11.88
2023-01-01T09:36:12.057Z,12.02
2023-01-01T09:41:42.959Z,12.20
2023-01-01T09:47:06.363Z,12.35
2023-01-01T09:52:41.516Z,12.50
2023-01-01T09:58:03.460Z,12.66
2023-01-01T10:03:27.928Z,12.81
2023-01-01T10:09:09.881Z,12.95
2023-01-01T10:14:37.083Z,13.10
2023-01-01T10:20:10.440Z,13.26
2023-01-01T10:25:34.162Z,13.42
2023-01-01T10:31:16.509Z,13.58
2023-01-01T10:36:38.786Z,13.75
2023-01-01T10:42:01.327Z,13.92
2023-01-01T10:47:28.866Z,14.13
2023-01-01T10:52:56.454Z,14.31
2023-01-01T10:58:51.020Z,14.42
2023-01-01T11:04:15.900Z,14.46
2023-01-01T11:09:39.635Z,14.54
2023-01-01T11:15:01.880Z,14.63
2023-01-01T11:20:23.692Z,14.71
2023-01-01T11:26:09.255Z,14.82
2023-01-01T11:31:37.116Z,14.88
2023-01-01T11:37:14.471Z,14.87
2023-01-01T11:42:37.173Z,14.92
2023-01-01T11:48:01.318Z,14.94
2023-01-01T11:53:23.114Z,14.98
2023-01-01T11:58:55.119Z,14.98
2023-01-01T12:04:25.291Z,14.95
2023-01-01T12:10:03.920Z,14.89
2023-01-01T12:16:08.171Z,14.87
2023-01-01T12:21:31.343Z,14.84
2023-01-01T12:27:23.560Z,14.83
2023-01-01T12:33:08.213Z,14.85
2023-01-01T12:38:52.127Z,14.87
2023-01-01T12:44:32.253Z,14.91
2023-01-01T12:49:57.667Z,14.93
2023-01-01T12:55:38.072Z,14.94
2023-01-01T13:01:07.453Z,14.94
2023-01-01T13:06:38.575Z,14.92
2023-01-01T13:12:05.155Z,14.87
2023-01-01T13:17:29.339Z,14.79
2023-01-01T13:22:51.068Z,14.69
2023-01-01T13:28:13.330Z,14.59
2023-01-01T13:33:37.160Z,14.48
2023-01-01T13:39:07.650Z,14.39
2023-01-01T13:44:29.628Z,14.26
2023-01-01T13:50:23.948Z,14.14
2023-01-01T13:55:54.687Z,14.03
2023-01-01T14:01:30.722Z,13.89
2023-01-01T14:06:54.843Z,13.79
2023-01-01T14:12:21.261Z,13.70
2023-01-01T14:17:44.033Z,13.56
2023-01-01T14:23:16.448Z,13.50
2023-01-01T14:28:38.458Z,13.47
2023-01-01T14:34:01.896Z,13.44
2023-01-01T14:39:28.414Z,13.37
2023-01-01T14:44:50.934Z,13.30
2023-01-01T14:50:19.447Z,13.20
2023-01-01T14:55:43.640Z,13.12
2023-01-01T15:01:23.404Z,13.02
2023-01-01T15:06:45.524Z,12.87
2023-01-01T15:12:12.681Z,12.72
2023-01-01T15:17:45.990Z,12.60
2023-01-01T15:23:14.960Z,12.48
2023-01-01T15:28:36.707Z,12.34
2023-01-01T15:33:58.797Z,12.22
2023-01-01T15:39:21.743Z,12.15
2023-01-01T15:44:44.643Z,12.09
2023-01-01T15:50:09.085Z,12.00
2023-01-01T15:55:33.483Z,12.00
2023-01-01T16:01:00.702Z,11.99
2023-01-01T16:06:27.537Z,11.96
2023-01-01T16:11:54.348Z,11.93
2023-01-01T16:17:17.970Z,11.89
2023-01-01T16:22:39.656Z,11.84
2023-01-01T16:28:02.275Z,11.78
2023-01-01T16:33:24.383Z,11.71
2023-01-01T16:38:58.177Z,11.65
2023-01-01T16:44:24.394Z,11.58
2023-01-01T16:49:49.452Z,11.54
2023-01-01T16:55:11.043Z,11.52
2023-01-01T17:00:32.926Z,11.50
2023-01-01T17:05:54.961Z,11.48
2023-01-01T17:11:17.796Z,11.44
2023-01-01T17:16:40.384Z,11.39
2023-01-01T17:22:04.595Z,11.33
2023-01-01T17:27:26.100Z,11.27
2023-01-01T17:32:50.404Z,11.20
2023-01-01T17:38:12.287Z,11.14
2023-01-01T17:43:35.503Z,11.09
2023-01-01T17:48:57.612Z,11.02
2023-01-01T17:54:19.688Z,10.96
2023-01-01T17:59:41.833Z,10.89
2023-01-01T18:05:07.167Z,10.83
2023-01-01T18:10:28.803Z,10.79
2023-01-01T18:15:50.522Z,10.76
2023-01-01T18:21:14.599Z,10.71
2023-01-01T18:26:37.770Z,10.64
2023-01-01T18:31:59.339Z,10.56
2023-01-01T18:37:22.768Z,10.47
2023-01-01T18:42:50.561Z,10.40
2023-01-01T18:48:13.215Z,10.33
2023-01-01T18:53:34.886Z,10.27
2023-01-01T18:58:57.165Z,10.22
2023-01-01T19:04:19.719Z,10.16
2023-01-01T19:09:41.800Z,10.13
2023-01-01T19:15:18.845Z,10.12
2023-01-01T19:20:40.309Z,10.08
2023-01-01T19:26:04.382Z,10.05
2023-01-01T19:31:26.469Z,10.02
2023-01-01T19:36:48.833Z,10.01
2023-01-01T19:42:11.511Z,9.99
2023-01-01T19:47:33.452Z,10.00
2023-01-01T19:52:55.294Z,10.01
2023-01-01T19:58:19.918Z,10.02
2023-01-01T20:03:57.620Z,10.03
2023-01-01T20:09:19.448Z,10.05
2023-01-01T20:14:41.263Z,10.06
2023-01-01T20:20:02.870Z,10.06
2023-01-01T20:25:24.884Z,10.07
2023-01-01T20:30:46.949Z,10.07
2023-01-01T20:36:27.827Z,10.09
2023-01-01T20:41:50.175Z,10.10
2023-01-01T20:47:12.948Z,10.09
2023-01-01T20:52:35.018Z,10.10
2023-01-01T20:57:57.239Z,10.08
2023-01-01T21:03:20.904Z,10.07
2023-01-01T21:08:46.636Z,10.06
2023-01-01T21:14:12.227Z,10.04
2023-01-01T21:19:36.463Z,9.98
2023-01-01T21:25:24.103Z,9.92
2023-01-01T21:30:55.444Z,9.82
2023-01-01T21:36:20.073Z,9.77
2023-01-01T21:41:41.971Z,9.71
2023-01-01T21:47:16.384Z,9.64
2023-01-01T21:52:42.696Z,9.55
2023-01-01T21:58:41.537Z,9.46
2023-01-01T22:04:09.552Z,9.39
2023-01-01T22:09:42.196Z,9.36
2023-01-01T22:15:38.776Z,9.32
2023-01-01T22:21:02.797Z,9.28
2023-01-01T22:26:27.972Z,9.30
2023-01-01T22:31:57.897Z,9.32
2023-01-01T22:37:22.864Z,9.29
2023-01-01T22:42:44.678Z,9.27
2023-01-01T22:48:07.578Z,9.26
2023-01-01T22:53:29.180Z,9.22
2023-01-01T22:58:56.831Z,9.07
2023-01-01T23:04:19.136Z,9.07
2023-01-01T23:09:41.732Z,9.10
2023-01-01T23:15:23.195Z,9.05
2023-01-01T23:20:44.894Z,9.06
2023-01-01T23:26:08.454Z,9.09
2023-01-01T23:31:30.119Z,9.06
2023-01-01T23:36:53.412Z,9.03
2023-01-01T23:42:15.240Z,8.98
2023-01-01T23:47:37.171Z,8.92
2023-01-01T23:52:59.111Z,8.90
2023-01-01T23:58:20.539Z,8.86
